createdAt,value
2018-09-30T00:00:57.889Z,7.03
2018-09-30T00:03:25.352Z,5.47
2018-09-30T00:05:52.777Z,4.90
2018-09-30T00:08:20.241Z,5.00
2018-09-30T00:10:47.807Z,7.80
2018-09-30T00:13:15.310Z,5.03
2018-09-30T00:15:42.851Z,6.40
2018-09-30T00:18:10.294Z,7.10
2018-09-30T00:20:37.802Z,5.67
2018-09-30T00:23:05.362Z,5.40
2018-09-30T00:25:38.651Z,8.17
2018-09-30T00:28:06.171Z,5.63
2018-09-30T00:30:33.700Z,6.37
2018-09-30T00:33:01.151Z,4.60
2018-09-30T00:35:28.601Z,6.77
2018-09-30T00:37:56.098Z,4.90
2018-09-30T00:40:23.525Z,7.30
2018-09-30T00:42:51.012Z,7.87
2018-09-30T00:45:18.429Z,3.50
2018-09-30T00:47:45.886Z,4.80
2018-09-30T00:50:13.304Z,4.80
2018-09-30T00:52:40.726Z,6.47
2018-09-30T00:55:08.175Z,5.80
2018-09-30T00:57:35.645Z,6.07
2018-09-30T01:00:03.271Z,5.37
2018-09-30T01:02:30.714Z,3.40
2018-09-30T01:04:58.188Z,5.67
2018-09-30T01:07:25.654Z,6.40
2018-09-30T01:09:53.126Z,4.87
2018-09-30T01:12:20.574Z,4.03
2018-09-30T01:14:48.039Z,6.60
2018-09-30T01:17:15.506Z,5.93
2018-09-30T01:19:42.983Z,5.03
2018-09-30T01:22:10.405Z,4.63
2018-09-30T01:24:37.862Z,4.03
2018-09-30T01:27:05.285Z,4.70
2018-09-30T01:29:32.742Z,6.07
2018-09-30T01:32:00.194Z,4.07
2018-09-30T01:34:27.867Z,5.17
2018-09-30T01:36:55.305Z,4.17
2018-09-30T01:39:22.802Z,5.97
2018-09-30T01:41:50.295Z,5.13
2018-09-30T01:44:17.770Z,5.17
2018-09-30T01:46:45.269Z,5.80
2018-09-30T01:49:12.849Z,4.33
2018-09-30T01:51:41.094Z,5.80
2018-09-30T01:54:08.848Z,3.47
2018-09-30T01:56:36.823Z,5.70
2018-09-30T01:59:04.544Z,5.20
2018-09-30T02:01:32.290Z,4.63
2018-09-30T02:04:00.079Z,2.73
2018-09-30T02:06:27.858Z,4.90
2018-09-30T02:08:55.934Z,5.37
2018-09-30T02:11:23.721Z,3.50
2018-09-30T02:13:51.439Z,5.10
2018-09-30T02:16:19.215Z,3.80
2018-09-30T02:18:47.127Z,4.93
2018-09-30T02:21:15.102Z,4.23
2018-09-30T02:23:42.986Z,4.33
2018-09-30T02:26:10.707Z,5.47
2018-09-30T02:28:38.446Z,4.93
2018-09-30T02:31:06.216Z,4.03
2018-09-30T02:33:34.365Z,4.80
2018-09-30T02:36:02.357Z,3.47
2018-09-30T02:38:30.162Z,5.07
2018-09-30T02:40:57.865Z,5.87
2018-09-30T02:43:27.208Z,3.90
2018-09-30T02:45:55.069Z,5.03
2018-09-30T02:48:22.899Z,3.93
2018-09-30T02:50:50.683Z,5.57
2018-09-30T02:53:18.520Z,4.83
2018-09-30T02:55:46.695Z,3.47
2018-09-30T02:58:14.556Z,4.80
2018-09-30T03:00:42.263Z,3.57
2018-09-30T03:03:09.937Z,4.83
2018-09-30T03:05:38.539Z,4.47
2018-09-30T03:08:12.132Z,3.23
2018-09-30T03:10:39.831Z,6.43
2018-09-30T03:13:07.555Z,4.37
2018-09-30T03:15:35.332Z,4.37
2018-09-30T03:18:03.198Z,2.83
2018-09-30T03:20:31.142Z,3.57
2018-09-30T03:22:58.868Z,6.17
2018-09-30T03:25:26.718Z,3.63
2018-09-30T03:27:54.338Z,6.17
2018-09-30T03:30:22.136Z,5.00
2018-09-30T03:32:49.702Z,4.30
2018-09-30T03:35:17.193Z,4.13
2018-09-30T03:37:44.758Z,5.70
2018-09-30T03:40:12.377Z,4.17
2018-09-30T03:42:39.828Z,4.87
2018-09-30T03:45:07.519Z,4.43
2018-09-30T03:47:35.001Z,4.00
2018-09-30T03:50:02.614Z,4.83
2018-09-30T03:52:30.171Z,4.90
2018-09-30T03:54:57.714Z,5.00
2018-09-30T03:57:25.150Z,4.30
2018-09-30T03:59:52.557Z,5.70
2018-09-30T04:02:20.068Z,5.20
2018-09-30T04:04:47.503Z,6.23
2018-09-30T04:07:14.927Z,5.70
2018-09-30T04:09:42.491Z,3.93
2018-09-30T04:12:09.893Z,3.37
2018-09-30T04:14:37.442Z,5.83
2018-09-30T04:17:05.287Z,8.03
2018-09-30T04:19:32.681Z,4.40
2018-09-30T04:22:00.183Z,4.50
2018-09-30T04:24:27.681Z,4.93
2018-09-30T04:26:55.214Z,4.57
2018-09-30T04:29:22.747Z,3.60
2018-09-30T04:31:50.159Z,5.40
2018-09-30T04:34:17.706Z,3.10
2018-09-30T04:36:45.123Z,3.67
2018-09-30T04:39:12.556Z,3.83
2018-09-30T04:41:40.111Z,4.50
2018-09-30T04:44:07.722Z,5.00
2018-09-30T04:46:35.157Z,4.80
2018-09-30T04:49:02.698Z,4.50
2018-09-30T04:51:30.238Z,4.77
2018-09-30T04:53:57.784Z,5.37
2018-09-30T04:56:25.331Z,6.00
2018-09-30T04:58:52.810Z,4.90
2018-09-30T05:01:20.297Z,4.83
2018-09-30T05:03:47.753Z,3.60
2018-09-30T05:06:15.227Z,4.00
2018-09-30T05:08:42.687Z,7.00
2018-09-30T05:11:10.247Z,4.33
2018-09-30T05:13:37.701Z,5.07
2018-09-30T05:16:05.201Z,7.40
2018-09-30T05:18:32.618Z,4.97
2018-09-30T05:21:00.095Z,5.00
2018-09-30T05:23:27.708Z,5.03
2018-09-30T05:25:55.246Z,4.97
2018-09-30T05:28:22.756Z,3.87
2018-09-30T05:30:50.255Z,4.53
2018-09-30T05:33:17.760Z,5.10
2018-09-30T05:35:45.256Z,4.50
2018-09-30T05:38:12.702Z,4.40
2018-09-30T05:40:40.222Z,4.23
2018-09-30T05:43:07.718Z,4.27
2018-09-30T05:45:35.293Z,3.57
2018-09-30T05:48:02.814Z,4.87
2018-09-30T05:50:30.241Z,6.03
2018-09-30T05:52:57.758Z,4.60
2018-09-30T05:55:25.323Z,4.10
2018-09-30T05:57:52.765Z,4.77
2018-09-30T06:00:20.218Z,5.23
2018-09-30T06:02:47.804Z,4.60
2018-09-30T06:05:15.354Z,6.23
2018-09-30T06:07:42.998Z,5.07
2018-09-30T06:10:10.457Z,3.87
2018-09-30T06:12:37.999Z,5.37
2018-09-30T06:15:05.526Z,4.67
2018-09-30T06:17:33.045Z,3.40
2018-09-30T06:20:00.616Z,3.80
2018-09-30T06:22:28.196Z,4.37
2018-09-30T06:24:55.804Z,4.20
2018-09-30T06:27:23.405Z,5.43
2018-09-30T06:29:50.923Z,4.60
2018-09-30T06:32:18.400Z,4.57
2018-09-30T06:34:45.907Z,4.57
2018-09-30T06:37:13.403Z,6.07
2018-09-30T06:39:40.951Z,6.47
2018-09-30T06:42:08.426Z,4.03
2018-09-30T06:44:35.989Z,6.30
2018-09-30T06:47:03.798Z,4.80
2018-09-30T06:49:31.348Z,8.23
2018-09-30T06:52:01.151Z,5.87
2018-09-30T06:54:28.919Z,5.17
2018-09-30T06:56:56.383Z,5.50
2018-09-30T06:59:23.850Z,6.43
2018-09-30T07:01:51.316Z,6.07
2018-09-30T07:04:18.853Z,7.80
2018-09-30T07:06:46.418Z,7.23
2018-09-30T07:09:13.937Z,8.37
2018-09-30T07:11:41.513Z,8.43
2018-09-30T07:14:09.195Z,5.17
2018-09-30T07:16:36.753Z,4.83
2018-09-30T07:19:04.294Z,6.47
2018-09-30T07:21:31.740Z,6.43
2018-09-30T07:23:59.286Z,6.27
2018-09-30T07:26:26.869Z,5.27
2018-09-30T07:28:54.314Z,9.03
2018-09-30T07:31:21.898Z,5.97
2018-09-30T07:33:49.402Z,7.20
2018-09-30T07:36:16.865Z,6.93
2018-09-30T07:38:44.558Z,6.47
2018-09-30T07:41:12.098Z,4.53
2018-09-30T07:43:39.564Z,6.40
2018-09-30T07:46:07.058Z,6.47
2018-09-30T07:48:34.541Z,7.40
2018-09-30T07:51:02.160Z,7.80
2018-09-30T07:53:29.613Z,6.23
2018-09-30T07:55:57.145Z,12.07
2018-09-30T07:58:24.819Z,7.50
2018-09-30T08:00:52.286Z,6.97
2018-09-30T08:03:19.722Z,7.23
2018-09-30T08:05:47.306Z,8.47
2018-09-30T08:08:15.225Z,7.53
2018-09-30T08:10:42.659Z,7.93
2018-09-30T08:13:10.271Z,8.33
2018-09-30T08:15:37.790Z,6.40
2018-09-30T08:18:05.366Z,7.17
2018-09-30T08:20:33.416Z,6.40
2018-09-30T08:23:01.115Z,6.97
2018-09-30T08:25:29.444Z,9.07
2018-09-30T08:27:57.401Z,8.50
2018-09-30T08:30:25.114Z,8.57
2018-09-30T08:32:52.844Z,8.67
2018-09-30T08:35:20.784Z,6.23
2018-09-30T08:38:52.862Z,8.73
2018-09-30T08:41:20.711Z,8.23
2018-09-30T08:43:48.164Z,6.03
2018-09-30T08:46:16.314Z,4.70
2018-09-30T08:48:44.043Z,9.87
2018-09-30T08:51:11.765Z,7.50
2018-09-30T08:53:39.556Z,8.87
2018-09-30T08:56:07.054Z,6.87
2018-09-30T08:58:34.622Z,8.77
2018-09-30T09:01:02.366Z,6.50
2018-09-30T09:03:29.881Z,6.87
2018-09-30T09:05:57.592Z,5.50
2018-09-30T09:08:25.305Z,6.97
2018-09-30T09:10:52.835Z,6.43
2018-09-30T09:13:20.329Z,7.83
2018-09-30T09:17:24.444Z,5.87
2018-09-30T09:19:51.906Z,6.80
2018-09-30T09:22:19.492Z,8.23
2018-09-30T09:24:47.178Z,7.93
2018-09-30T09:27:14.759Z,7.50
2018-09-30T09:29:42.238Z,8.93
2018-09-30T09:32:09.749Z,7.23
2018-09-30T09:34:37.223Z,8.20
2018-09-30T09:37:04.718Z,6.80
2018-09-30T09:39:32.204Z,6.80
2018-09-30T09:41:59.687Z,8.87
2018-09-30T09:44:27.159Z,6.70
2018-09-30T09:46:54.719Z,6.53
2018-09-30T09:49:22.229Z,9.00
2018-09-30T09:51:49.677Z,8.60
2018-09-30T09:54:17.466Z,5.87
2018-09-30T09:56:44.947Z,8.23
2018-09-30T09:59:12.676Z,6.97
2018-09-30T10:01:40.154Z,24.27
2018-09-30T10:04:07.651Z,11.83
2018-09-30T10:06:35.331Z,54.83
2018-09-30T10:09:03.787Z,12.73
2018-09-30T10:11:31.238Z,271.47
2018-09-30T10:13:58.843Z,617.03
2018-09-30T10:16:26.342Z,232.67
2018-09-30T10:18:53.814Z,71.17
2018-09-30T10:21:21.287Z,347.07
2018-09-30T10:23:48.883Z,92.50
2018-09-30T10:26:16.331Z,13.43
2018-09-30T10:28:43.846Z,6.37
2018-09-30T10:31:11.413Z,18.03
2018-09-30T10:33:38.905Z,6.77
2018-09-30T10:36:06.429Z,9.40
2018-09-30T10:38:34.007Z,16.93
2018-09-30T10:41:01.468Z,10.20
2018-09-30T10:43:28.985Z,12.77
2018-09-30T10:45:56.435Z,120.70
2018-09-30T10:48:23.912Z,29.23
2018-09-30T10:50:51.426Z,37.30
2018-09-30T10:53:18.944Z,7.83
2018-09-30T10:55:46.467Z,159.33
2018-09-30T10:58:13.962Z,165.27
2018-09-30T11:00:41.497Z,67.30
2018-09-30T11:03:09.070Z,94.27
2018-09-30T11:05:36.626Z,78.47
2018-09-30T11:08:04.202Z,27.57
2018-09-30T11:10:31.676Z,17.50
2018-09-30T11:12:59.197Z,8.67
2018-09-30T11:15:26.800Z,259.43
2018-09-30T11:17:54.270Z,138.83
2018-09-30T11:20:23.520Z,146.57
2018-09-30T11:22:51.133Z,347.70
2018-09-30T11:25:18.766Z,43.87
2018-09-30T11:27:46.345Z,61.70
2018-09-30T11:30:13.914Z,243.37
2018-09-30T11:32:41.538Z,21.17
2018-09-30T11:35:09.021Z,114.57
2018-09-30T11:37:36.506Z,339.53
2018-09-30T11:40:04.469Z,148.87
2018-09-30T11:42:32.041Z,15.93
2018-09-30T11:44:59.612Z,14.53
2018-09-30T11:47:27.186Z,13.63
2018-09-30T11:49:54.754Z,8.07
2018-09-30T11:52:22.266Z,18.50
2018-09-30T11:54:49.770Z,271.60
2018-09-30T11:57:17.277Z,180.87
2018-09-30T11:59:44.728Z,141.63
2018-09-30T12:02:12.420Z,744.50
2018-09-30T12:04:39.926Z,289.87
2018-09-30T12:07:07.433Z,345.63
2018-09-30T12:09:34.957Z,747.10
2018-09-30T12:12:02.443Z,253.90
2018-09-30T12:14:29.909Z,125.57
2018-09-30T12:16:57.424Z,23.83
2018-09-30T12:19:24.958Z,170.30
2018-09-30T12:21:52.396Z,85.07
2018-09-30T12:24:19.861Z,99.27
2018-09-30T12:26:47.290Z,175.50
2018-09-30T12:29:14.779Z,188.97
2018-09-30T12:31:42.253Z,203.37
2018-09-30T12:34:09.733Z,16.90
2018-09-30T12:36:37.209Z,197.67
2018-09-30T12:39:06.442Z,10.30
2018-09-30T12:41:33.865Z,8.03
2018-09-30T12:44:01.411Z,8.93
2018-09-30T12:46:28.906Z,119.43
2018-09-30T12:48:56.354Z,128.17
2018-09-30T12:51:23.857Z,156.70
2018-09-30T12:53:51.322Z,46.50
2018-09-30T12:56:18.854Z,21.00
2018-09-30T12:58:46.394Z,8.27
2018-09-30T13:01:13.892Z,151.47
2018-09-30T13:03:41.410Z,85.33
2018-09-30T13:06:08.889Z,84.50
2018-09-30T13:08:36.448Z,104.87
2018-09-30T13:11:04.006Z,119.73
2018-09-30T13:13:31.471Z,156.77
2018-09-30T13:15:58.989Z,103.93
2018-09-30T13:18:26.672Z,16.43
2018-09-30T13:20:54.231Z,6.80
2018-09-30T13:23:21.806Z,53.40
2018-09-30T13:25:49.417Z,35.73
2018-09-30T13:28:17.058Z,97.47
2018-09-30T13:30:44.664Z,128.50
2018-09-30T13:33:12.215Z,131.87
2018-09-30T13:35:40.122Z,116.47
2018-09-30T13:38:07.787Z,55.63
2018-09-30T13:40:35.367Z,103.53
2018-09-30T13:43:02.830Z,68.23
2018-09-30T13:45:30.382Z,52.13
2018-09-30T13:47:57.936Z,37.27
2018-09-30T13:50:25.379Z,126.47
2018-09-30T13:52:53.251Z,122.87
2018-09-30T13:55:20.738Z,98.10
2018-09-30T13:57:48.189Z,116.37
2018-09-30T14:00:15.707Z,103.60
2018-09-30T14:02:43.197Z,9.47
2018-09-30T14:05:10.668Z,47.47
2018-09-30T14:07:38.118Z,83.70
2018-09-30T14:10:05.618Z,63.43
2018-09-30T14:12:33.059Z,87.60
2018-09-30T14:15:00.535Z,104.53
2018-09-30T14:17:28.155Z,105.13
2018-09-30T14:19:55.977Z,92.07
2018-09-30T14:22:23.840Z,67.27
2018-09-30T14:24:51.341Z,59.77
2018-09-30T14:27:18.911Z,102.20
2018-09-30T14:29:46.365Z,103.07
2018-09-30T14:32:13.956Z,105.97
2018-09-30T14:34:41.505Z,99.13
2018-09-30T14:37:09.081Z,99.93
2018-09-30T14:39:36.549Z,135.13
2018-09-30T14:42:04.218Z,131.63
2018-09-30T14:44:31.691Z,169.33
2018-09-30T14:46:59.198Z,155.20
2018-09-30T14:49:26.677Z,239.67
2018-09-30T14:51:54.122Z,268.57
2018-09-30T14:54:21.661Z,186.37
2018-09-30T14:56:49.179Z,240.47
2018-09-30T14:59:16.644Z,95.03
2018-09-30T15:01:44.102Z,120.97
2018-09-30T15:04:11.580Z,254.53
2018-09-30T15:06:39.048Z,264.10
2018-09-30T15:09:07.938Z,217.43
2018-09-30T15:11:35.388Z,191.83
2018-09-30T15:14:02.898Z,213.57
2018-09-30T15:16:30.338Z,239.20
2018-09-30T15:18:57.778Z,226.23
2018-09-30T15:21:25.246Z,239.50
2018-09-30T15:23:52.726Z,177.47
2018-09-30T15:26:20.217Z,202.87
2018-09-30T15:28:47.679Z,207.60
2018-09-30T15:31:15.274Z,124.03
2018-09-30T15:33:42.814Z,133.23
2018-09-30T15:36:10.288Z,99.43
2018-09-30T15:38:37.778Z,179.77
2018-09-30T15:41:05.383Z,127.87
2018-09-30T15:43:32.999Z,145.33
2018-09-30T15:46:00.473Z,177.03
2018-09-30T15:48:27.977Z,142.47
2018-09-30T15:50:55.481Z,156.80
2018-09-30T15:53:23.030Z,160.47
2018-09-30T15:55:50.615Z,125.87
2018-09-30T15:58:18.089Z,141.53
2018-09-30T16:00:45.693Z,68.97
2018-09-30T16:03:13.155Z,99.63
2018-09-30T16:05:40.731Z,59.50
2018-09-30T16:08:08.195Z,133.87
2018-09-30T16:10:35.702Z,110.50
2018-09-30T16:13:03.210Z,131.13
2018-09-30T16:15:30.651Z,98.00
2018-09-30T16:17:58.137Z,98.67
2018-09-30T16:20:25.609Z,78.50
2018-09-30T16:22:53.065Z,111.43
2018-09-30T16:25:20.556Z,89.47
2018-09-30T16:27:48.147Z,18.97
2018-09-30T16:30:15.686Z,9.20
2018-09-30T16:32:43.254Z,15.97
2018-09-30T16:35:10.864Z,31.33
2018-09-30T16:37:38.422Z,45.47
2018-09-30T16:40:06.234Z,68.43
2018-09-30T16:42:33.829Z,9.50
2018-09-30T16:45:01.278Z,11.40
2018-09-30T16:47:28.883Z,8.53
2018-09-30T16:49:56.375Z,15.63
2018-09-30T16:52:23.899Z,34.97
2018-09-30T16:54:51.438Z,9.87
2018-09-30T16:57:18.982Z,13.37
2018-09-30T16:59:46.600Z,11.63
2018-09-30T17:02:14.094Z,28.47
2018-09-30T17:04:41.619Z,15.00
2018-09-30T17:07:09.180Z,8.57
2018-09-30T17:09:36.650Z,7.37
2018-09-30T17:12:04.110Z,16.43
2018-09-30T17:14:31.738Z,11.50
2018-09-30T17:16:59.265Z,7.47
2018-09-30T17:19:26.717Z,6.67
2018-09-30T17:21:54.263Z,6.97
2018-09-30T17:24:21.734Z,11.03
2018-09-30T17:26:49.221Z,8.10
2018-09-30T17:29:16.846Z,8.20
2018-09-30T17:31:44.394Z,15.80
2018-09-30T17:34:11.885Z,7.37
2018-09-30T17:36:39.515Z,7.90
2018-09-30T17:39:08.039Z,6.00
2018-09-30T17:41:35.581Z,7.20
2018-09-30T17:44:03.436Z,7.07
2018-09-30T17:46:30.823Z,6.10
2018-09-30T17:48:58.457Z,5.17
2018-09-30T17:51:25.935Z,5.97
2018-09-30T17:53:53.448Z,6.60
2018-09-30T17:56:20.958Z,8.97
2018-09-30T17:58:48.502Z,7.97
2018-09-30T18:01:15.983Z,8.30
2018-09-30T18:03:43.478Z,9.83
2018-09-30T18:06:10.966Z,9.03
2018-09-30T18:08:38.519Z,7.23
2018-09-30T18:11:06.402Z,8.80
2018-09-30T18:13:33.866Z,6.57
2018-09-30T18:16:01.379Z,25.80
2018-09-30T18:18:28.982Z,17.03
2018-09-30T18:20:56.661Z,5.60
2018-09-30T18:23:24.213Z,8.23
2018-09-30T18:25:55.327Z,7.07
2018-09-30T18:28:22.821Z,5.77
2018-09-30T18:30:51.010Z,6.53
2018-09-30T18:33:18.576Z,5.90
2018-09-30T18:35:46.227Z,7.90
2018-09-30T18:38:14.235Z,6.57
2018-09-30T18:40:45.110Z,7.30
2018-09-30T18:43:13.396Z,6.83
2018-09-30T18:45:41.417Z,6.50
2018-09-30T18:48:09.886Z,7.80
2018-09-30T18:50:37.787Z,6.20
2018-09-30T18:53:05.940Z,6.00
2018-09-30T18:55:33.815Z,7.47
2018-09-30T18:58:01.577Z,5.10
2018-09-30T19:00:30.576Z,7.13
2018-09-30T19:02:58.420Z,5.40
2018-09-30T19:05:26.380Z,10.80
2018-09-30T19:07:54.920Z,7.17
2018-09-30T19:10:22.784Z,7.83
2018-09-30T19:12:50.647Z,4.83
2018-09-30T19:15:18.410Z,10.70
2018-09-30T19:17:46.391Z,15.07
2018-09-30T19:20:14.201Z,6.67
2018-09-30T19:22:41.875Z,6.20
2018-09-30T19:25:09.502Z,7.67
2018-09-30T19:27:36.945Z,7.10
2018-09-30T19:30:04.697Z,5.60
2018-09-30T19:32:32.107Z,6.73
2018-09-30T19:34:59.973Z,6.73
2018-09-30T19:37:27.611Z,7.43
2018-09-30T19:39:55.191Z,8.57
2018-09-30T19:42:22.962Z,6.30
2018-09-30T19:44:50.562Z,8.10
2018-09-30T19:47:18.226Z,7.13
2018-09-30T19:49:45.703Z,9.47
2018-09-30T19:52:13.256Z,10.13
2018-09-30T19:54:40.884Z,7.20
2018-09-30T19:57:08.555Z,5.80
2018-09-30T19:59:36.914Z,5.40
2018-09-30T20:02:04.603Z,11.13
2018-09-30T20:04:32.193Z,10.23
2018-09-30T20:09:51.008Z,7.67
2018-09-30T20:12:18.598Z,7.43
2018-09-30T20:14:46.098Z,6.80
2018-09-30T20:17:13.596Z,10.47
2018-09-30T20:19:41.126Z,7.60
2018-09-30T20:22:10.065Z,4.90
2018-09-30T20:24:38.536Z,9.77
2018-09-30T20:27:06.168Z,8.13
2018-09-30T20:29:34.135Z,5.13
2018-09-30T20:32:01.670Z,7.97
2018-09-30T20:34:29.130Z,7.63
2018-09-30T20:36:56.660Z,8.67
2018-09-30T20:39:24.125Z,7.27
2018-09-30T20:41:51.650Z,7.87
2018-09-30T20:44:19.291Z,7.00
2018-09-30T20:46:46.782Z,6.97
2018-09-30T20:49:14.509Z,6.07
2018-09-30T20:51:42.037Z,8.43
2018-09-30T20:54:09.550Z,6.40
2018-09-30T20:56:37.057Z,8.67
2018-09-30T20:59:04.623Z,9.17
2018-09-30T21:01:32.187Z,8.07
2018-09-30T21:03:59.758Z,6.20
2018-09-30T21:06:34.350Z,5.87
2018-09-30T21:09:01.874Z,6.37
2018-09-30T21:11:29.377Z,8.07
2018-09-30T21:13:57.158Z,7.23
2018-09-30T21:16:24.749Z,6.53
2018-09-30T21:18:52.276Z,5.97
2018-09-30T21:21:19.741Z,12.07
2018-09-30T21:23:47.201Z,6.53
2018-09-30T21:26:14.666Z,6.43
2018-09-30T21:28:42.114Z,8.93
2018-09-30T21:31:09.610Z,6.47
2018-09-30T21:33:37.104Z,8.53
2018-09-30T21:36:04.610Z,8.60
2018-09-30T21:38:32.072Z,6.27
2018-09-30T21:40:59.614Z,8.87
2018-09-30T21:43:27.130Z,5.53
2018-09-30T21:45:54.643Z,6.93
2018-09-30T21:48:22.127Z,4.27
2018-09-30T21:50:49.593Z,4.90
2018-09-30T21:53:17.426Z,7.33
2018-09-30T21:55:44.949Z,6.17
2018-09-30T21:58:12.474Z,5.53
2018-09-30T22:00:43.177Z,5.43
2018-09-30T22:03:11.658Z,5.20
2018-09-30T22:05:39.186Z,6.77
2018-09-30T22:08:08.090Z,8.80
2018-09-30T22:10:36.046Z,6.67
2018-09-30T22:13:03.552Z,5.83
2018-09-30T22:15:31.170Z,5.20
2018-09-30T22:17:58.647Z,5.70
2018-09-30T22:20:26.207Z,6.73
2018-09-30T22:22:53.665Z,6.10
2018-09-30T22:25:21.163Z,5.93
2018-09-30T22:27:48.651Z,6.17
2018-09-30T22:30:16.097Z,5.30
2018-09-30T22:32:43.579Z,8.43
2018-09-30T22:35:11.063Z,6.07
2018-09-30T22:37:38.535Z,7.00
2018-09-30T22:40:06.462Z,5.60
2018-09-30T22:42:33.957Z,6.63
2018-09-30T22:45:01.433Z,5.60
2018-09-30T22:47:28.877Z,7.90
2018-09-30T22:49:57.584Z,4.83
2018-09-30T22:52:25.477Z,12.60
2018-09-30T22:54:53.306Z,4.50
2018-09-30T22:57:21.203Z,6.13
2018-09-30T22:59:49.148Z,6.90
2018-09-30T23:02:16.615Z,6.80
2018-09-30T23:04:44.483Z,7.93
2018-09-30T23:07:12.725Z,5.43
2018-09-30T23:09:41.700Z,7.53
2018-09-30T23:12:10.322Z,6.20
2018-09-30T23:14:38.269Z,7.17
2018-09-30T23:17:06.806Z,6.83
2018-09-30T23:19:35.325Z,7.40
2018-09-30T23:22:03.309Z,6.80
2018-09-30T23:24:31.079Z,8.47
2018-09-30T23:26:58.910Z,14.90
2018-09-30T23:29:26.965Z,6.60
2018-09-30T23:31:54.796Z,7.87
2018-09-30T23:34:23.679Z,7.97
2018-09-30T23:36:51.190Z,6.57
2018-09-30T23:39:18.742Z,7.63
2018-09-30T23:41:46.230Z,6.53
2018-09-30T23:44:13.801Z,6.97
2018-09-30T23:46:41.249Z,8.87
2018-09-30T23:49:08.734Z,8.00
2018-09-30T23:51:36.366Z,5.80
2018-09-30T23:54:04.079Z,6.73
2018-09-30T23:56:31.606Z,7.83
2018-09-30T23:58:59.127Z,6.70
